Time;durP1;ratioP1;P1;durP2;ratioP2;P2;SDS_P1;SDS_P2;PMS_P1;PMS_P2;Temp;Humidity;BMP_temperature;BMP_pressure;BME280_temperature;BME280_humidity;BME280_pressure;Samples;Min_cycle;Max_cycle;Signal;HPM_P1;HPM_P2
2022/01/30 00:00:20;;;;;;;10.53;4.20;;;9.40;77.00;;;;;;5041669;28;20459;-51
2022/01/30 00:02:46;;;;;;;14.33;4.40;;;9.30;76.90;;;;;;5034073;28;20469;-51
2022/01/30 00:05:13;;;;;;;7.63;3.47;;;9.30;76.60;;;;;;5037405;28;20455;-51
2022/01/30 00:07:40;;;;;;;14.03;3.83;;;9.40;76.40;;;;;;5021537;28;20469;-51
2022/01/30 00:10:10;;;;;;;7.50;3.77;;;9.40;76.80;;;;;;5039849;28;20470;-51
2022/01/30 00:13:14;;;;;;;9.77;3.57;;;9.40;76.70;;;;;;5040699;28;20474;-50
2022/01/30 00:15:47;;;;;;;17.93;4.50;;;9.30;76.90;;;;;;5040344;28;20471;-51
2022/01/30 00:21:00;;;;;;;13.77;3.73;;;9.30;77.40;;;;;;5044160;28;20451;-48
2022/01/30 00:23:29;;;;;;;11.47;3.90;;;9.40;77.40;;;;;;5034711;28;20490;-48
2022/01/30 00:25:57;;;;;;;13.50;3.40;;;9.40;77.30;;;;;;5042252;28;20457;-48
2022/01/30 00:28:26;;;;;;;14.10;3.57;;;9.40;77.70;;;;;;5047095;28;20530;-49
2022/01/30 00:30:54;;;;;;;8.77;2.83;;;9.40;76.40;;;;;;5051842;28;20564;-49
2022/01/30 00:33:21;;;;;;;10.50;3.90;;;9.40;76.60;;;;;;5048469;28;20526;-50
2022/01/30 00:35:48;;;;;;;13.80;3.53;;;9.40;76.90;;;;;;5055339;28;21021;-49
2022/01/30 00:38:16;;;;;;;8.73;3.20;;;9.30;75.80;;;;;;5054882;28;20493;-49
2022/01/30 00:40:43;;;;;;;8.20;3.40;;;9.40;75.20;;;;;;5045450;28;20462;-48
2022/01/30 00:43:11;;;;;;;13.10;4.07;;;9.30;75.40;;;;;;5056293;28;20485;-48
2022/01/30 00:45:38;;;;;;;9.87;3.20;;;9.30;75.50;;;;;;5042532;28;20458;-48
2022/01/30 00:48:06;;;;;;;9.73;4.53;;;9.30;75.80;;;;;;5042926;28;20980;-48
2022/01/30 00:50:33;;;;;;;14.93;3.97;;;9.30;74.70;;;;;;5029689;28;20648;-48
2022/01/30 00:53:00;;;;;;;8.23;3.43;;;9.30;74.60;;;;;;5042838;28;21067;-48
2022/01/30 00:55:29;;;;;;;9.30;3.60;;;9.30;74.90;;;;;;5032386;28;20472;-48
2022/01/30 00:57:57;;;;;;;8.40;3.57;;;9.30;75.20;;;;;;5040013;28;21036;-48
2022/01/30 01:00:26;;;;;;;9.03;3.47;;;9.30;75.40;;;;;;5040253;28;20451;-48
2022/01/30 01:02:53;;;;;;;7.30;3.50;;;9.30;75.20;;;;;;5040608;28;20882;-47
2022/01/30 01:05:20;;;;;;;11.43;4.50;;;9.30;75.40;;;;;;5041239;28;20943;-48
2022/01/30 01:07:49;;;;;;;11.90;3.47;;;9.30;75.50;;;;;;5042315;28;20465;-48
2022/01/30 01:13:12;;;;;;;13.50;5.20;;;9.30;75.80;;;;;;5037437;28;20454;-48
2022/01/30 01:23:54;;;;;;;8.37;3.40;;;9.30;75.20;;;;;;5046043;28;20486;-51
2022/01/30 01:26:22;;;;;;;12.70;2.73;;;9.20;74.60;;;;;;5040729;28;20460;-51
2022/01/30 01:28:50;;;;;;;9.67;4.10;;;9.30;74.40;;;;;;5059452;28;20982;-51
2022/01/30 01:31:17;;;;;;;9.80;3.20;;;9.30;74.20;;;;;;5035044;28;20831;-51
2022/01/30 01:36:28;;;;;;;13.03;3.17;;;9.20;73.70;;;;;;5043873;28;20601;-51
2022/01/30 01:38:55;;;;;;;7.40;2.90;;;9.20;73.70;;;;;;5046745;28;20490;-51
2022/01/30 01:41:24;;;;;;;7.57;2.90;;;9.20;74.00;;;;;;5006506;28;20463;-51
2022/01/30 01:43:52;;;;;;;15.90;3.33;;;9.20;73.30;;;;;;5048831;28;20474;-51
2022/01/30 01:46:24;;;;;;;7.53;3.20;;;9.20;72.70;;;;;;5038340;28;20468;-51
2022/01/30 01:48:53;;;;;;;6.20;2.37;;;9.20;73.00;;;;;;5043741;28;20447;-51
2022/01/30 01:51:26;;;;;;;7.47;3.13;;;9.20;72.80;;;;;;5041020;28;20502;-51
2022/01/30 01:53:57;;;;;;;18.57;3.40;;;9.20;72.10;;;;;;5032396;28;20467;-51
2022/01/30 01:56:26;;;;;;;7.27;3.00;;;9.10;72.20;;;;;;5013621;28;20469;-51
2022/01/30 01:58:53;;;;;;;10.47;3.10;;;9.10;72.40;;;;;;5053470;28;20482;-49
2022/01/30 02:01:20;;;;;;;7.70;3.37;;;9.10;70.60;;;;;;5051355;28;20471;-50
2022/01/30 02:03:47;;;;;;;9.00;2.73;;;9.10;69.70;;;;;;5056217;28;20485;-49
2022/01/30 02:06:18;;;;;;;9.83;3.10;;;9.10;69.00;;;;;;5050968;28;20446;-47
2022/01/30 02:08:51;;;;;;;9.30;4.60;;;9.10;68.90;;;;;;5038434;28;20921;-48
2022/01/30 02:11:29;;;;;;;12.37;3.00;;;9.00;68.90;;;;;;5035267;28;20510;-48
2022/01/30 02:27:34;;;;;;;11.20;2.73;;;8.90;69.40;;;;;;5037395;28;20453;-48
2022/01/30 02:30:13;;;;;;;7.60;2.60;;;8.90;69.60;;;;;;5042467;28;20462;-48
2022/01/30 02:32:41;;;;;;;6.83;2.50;;;8.90;69.80;;;;;;5058234;28;20450;-48
2022/01/30 02:35:09;;;;;;;7.60;2.80;;;8.90;70.00;;;;;;5039129;28;20825;-48
2022/01/30 02:37:36;;;;;;;11.03;3.20;;;8.90;70.00;;;;;;5039996;28;20443;-47
2022/01/30 02:40:07;;;;;;;8.67;2.83;;;8.90;70.10;;;;;;5024211;28;20461;-47
2022/01/30 02:42:37;;;;;;;7.23;2.27;;;8.90;70.30;;;;;;5037497;28;20478;-47
2022/01/30 02:45:08;;;;;;;6.63;2.80;;;8.90;70.40;;;;;;5044110;28;20466;-48
2022/01/30 02:50:17;;;;;;;9.13;3.33;;;8.90;71.10;;;;;;5044124;28;20451;-47
2022/01/30 02:52:55;;;;;;;6.37;3.17;;;8.90;70.70;;;;;;5042461;28;20469;-47
2022/01/30 02:55:22;;;;;;;7.73;3.10;;;8.90;70.80;;;;;;5042008;28;20466;-47
2022/01/30 02:57:49;;;;;;;11.00;2.60;;;8.90;71.00;;;;;;5038292;28;20483;-47
2022/01/30 03:00:16;;;;;;;8.43;4.00;;;8.90;70.60;;;;;;5043096;28;20458;-48
2022/01/30 03:02:43;;;;;;;10.33;2.97;;;8.90;70.60;;;;;;5039008;28;20462;-48
2022/01/30 03:05:10;;;;;;;7.17;2.50;;;8.90;70.70;;;;;;5037467;28;20485;-48
2022/01/30 03:07:37;;;;;;;6.83;3.60;;;8.80;70.60;;;;;;5038006;28;20477;-47
2022/01/30 03:10:04;;;;;;;4.97;3.33;;;8.80;70.80;;;;;;5039948;28;20457;-48
2022/01/30 03:12:31;;;;;;;6.97;4.00;;;8.80;71.30;;;;;;5022690;28;20448;-48
2022/01/30 03:14:58;;;;;;;8.03;3.60;;;8.80;71.30;;;;;;5037121;28;20493;-48
2022/01/30 03:17:25;;;;;;;10.03;2.80;;;8.80;71.40;;;;;;5040930;28;20474;-47
2022/01/30 03:19:51;;;;;;;11.83;3.80;;;8.80;70.70;;;;;;5040177;28;20498;-48
2022/01/30 03:22:18;;;;;;;8.03;2.67;;;8.80;68.60;;;;;;5040641;28;20466;-47
2022/01/30 03:24:45;;;;;;;7.77;3.03;;;8.70;68.70;;;;;;5039094;28;20641;-47
2022/01/30 03:27:14;;;;;;;9.90;2.90;;;8.70;66.70;;;;;;5034284;28;20466;-48
2022/01/30 03:29:48;;;;;;;9.97;3.27;;;8.70;66.30;;;;;;5041664;28;20463;-48
2022/01/30 03:32:16;;;;;;;14.60;3.17;;;8.70;65.80;;;;;;5042132;28;20814;-48
2022/01/30 03:34:42;;;;;;;9.77;2.93;;;8.60;65.90;;;;;;5041404;28;20516;-47
2022/01/30 03:37:09;;;;;;;9.80;2.97;;;8.60;66.50;;;;;;5040614;28;21084;-48
2022/01/30 03:39:36;;;;;;;7.30;2.43;;;8.50;66.50;;;;;;5038770;28;20572;-48
2022/01/30 03:42:03;;;;;;;5.80;2.03;;;8.50;66.80;;;;;;5039626;28;20462;-48
2022/01/30 03:44:30;;;;;;;12.63;3.57;;;8.50;67.00;;;;;;5038561;28;20870;-47
2022/01/30 03:46:57;;;;;;;11.23;2.47;;;8.50;67.20;;;;;;5015683;28;20446;-48
2022/01/30 03:49:23;;;;;;;7.10;2.73;;;8.50;66.00;;;;;;5041935;28;20490;-48
2022/01/30 03:51:50;;;;;;;9.70;2.57;;;8.50;65.60;;;;;;5039235;28;20491;-48
2022/01/30 03:54:18;;;;;;;8.23;2.20;;;8.50;66.20;;;;;;5046980;28;20455;-49
2022/01/30 03:56:44;;;;;;;11.47;3.07;;;8.40;66.80;;;;;;5050755;28;20462;-49
2022/01/30 03:59:11;;;;;;;8.13;3.33;;;8.40;66.50;;;;;;5063725;28;20890;-49
2022/01/30 04:01:38;;;;;;;10.50;2.80;;;8.40;66.70;;;;;;5048269;28;20461;-49
2022/01/30 04:04:05;;;;;;;7.10;4.77;;;8.40;67.00;;;;;;5050515;28;20971;-49
2022/01/30 04:06:33;;;;;;;6.90;2.50;;;8.40;66.90;;;;;;5048825;28;20455;-49
2022/01/30 04:09:00;;;;;;;11.67;3.40;;;8.40;66.80;;;;;;5041196;28;20466;-49
2022/01/30 04:11:29;;;;;;;5.50;2.33;;;8.40;66.80;;;;;;5051332;28;20468;-49
2022/01/30 04:13:56;;;;;;;9.93;3.30;;;8.40;66.90;;;;;;5054678;28;20493;-49
2022/01/30 04:16:23;;;;;;;14.93;4.40;;;8.30;66.00;;;;;;5052194;28;20454;-49
2022/01/30 04:18:50;;;;;;;9.63;3.10;;;8.30;66.30;;;;;;5035054;28;20501;-49
2022/01/30 04:21:17;;;;;;;9.30;3.63;;;8.30;65.10;;;;;;5054423;28;20462;-49
2022/01/30 04:23:44;;;;;;;7.83;2.67;;;8.20;65.30;;;;;;5040467;28;20470;-48
2022/01/30 04:26:11;;;;;;;9.60;2.77;;;8.20;64.60;;;;;;5033775;28;20972;-49
2022/01/30 04:28:38;;;;;;;8.73;2.77;;;8.10;65.20;;;;;;5057046;28;20605;-49
2022/01/30 04:31:05;;;;;;;12.53;2.93;;;8.10;65.50;;;;;;5052659;28;20440;-49
2022/01/30 04:33:32;;;;;;;10.73;2.50;;;8.10;65.00;;;;;;5053680;28;20459;-48
2022/01/30 04:36:05;;;;;;;7.73;2.27;;;8.10;65.10;;;;;;5037277;28;20537;-49
2022/01/30 04:38:50;;;;;;;7.80;2.57;;;8.00;65.00;;;;;;5052345;28;20582;-49
2022/01/30 05:07:50;;;;;;;13.80;3.57;;;7.80;65.80;;;;;;5066569;28;20455;-49
2022/01/30 05:10:17;;;;;;;8.57;3.40;;;7.80;65.60;;;;;;5066260;28;20442;-49
2022/01/30 05:12:51;;;;;;;13.10;3.23;;;7.80;65.70;;;;;;5057771;28;20813;-49
2022/01/30 05:15:20;;;;;;;8.80;2.90;;;7.80;65.70;;;;;;5059233;28;20458;-50
2022/01/30 05:17:48;;;;;;;9.97;3.40;;;7.70;66.80;;;;;;5034686;28;21035;-49
2022/01/30 05:20:15;;;;;;;7.77;3.00;;;7.70;66.40;;;;;;5054506;28;20570;-49
2022/01/30 05:22:42;;;;;;;7.27;3.30;;;7.70;66.10;;;;;;5054510;28;20489;-50
2022/01/30 05:25:09;;;;;;;14.60;3.30;;;7.70;66.20;;;;;;5049982;28;20926;-50
2022/01/30 05:27:37;;;;;;;13.90;3.13;;;7.70;66.30;;;;;;5040312;28;20458;-50
2022/01/30 05:30:05;;;;;;;8.50;3.83;;;7.70;66.10;;;;;;5057976;28;20449;-50
2022/01/30 05:32:33;;;;;;;10.60;3.17;;;7.70;65.80;;;;;;5055967;28;20897;-49
2022/01/30 05:35:00;;;;;;;7.27;2.30;;;7.60;65.80;;;;;;5056986;28;20482;-50
2022/01/30 05:37:27;;;;;;;11.50;2.90;;;7.60;65.60;;;;;;5044799;28;20468;-50
2022/01/30 05:39:54;;;;;;;9.70;2.87;;;7.60;65.70;;;;;;5040551;28;20493;-50
2022/01/30 05:42:23;;;;;;;6.20;2.40;;;7.60;65.80;;;;;;5040587;28;20474;-50
2022/01/30 05:47:34;;;;;;;6.23;2.50;;;7.60;66.60;;;;;;5033859;28;20473;-50
2022/01/30 05:50:01;;;;;;;11.47;3.87;;;7.50;66.70;;;;;;5041880;28;20456;-49
2022/01/30 05:52:28;;;;;;;11.17;2.90;;;7.50;66.50;;;;;;5041647;28;20478;-47
2022/01/30 05:54:55;;;;;;;7.27;2.43;;;7.60;66.70;;;;;;5042661;28;20500;-47
2022/01/30 05:57:22;;;;;;;7.03;3.20;;;7.50;66.90;;;;;;5035537;28;21343;-47
2022/01/30 05:59:49;;;;;;;8.03;2.33;;;7.50;66.90;;;;;;5040327;28;20493;-47
2022/01/30 06:02:16;;;;;;;8.80;2.33;;;7.50;66.60;;;;;;5026978;28;20835;-47
2022/01/30 06:04:44;;;;;;;12.47;3.00;;;7.50;66.90;;;;;;5041911;28;20478;-47
2022/01/30 06:07:12;;;;;;;12.10;2.73;;;7.50;67.60;;;;;;5040609;28;20478;-47
2022/01/30 06:09:39;;;;;;;7.20;3.07;;;7.50;67.10;;;;;;5039091;28;21151;-47
2022/01/30 06:12:06;;;;;;;6.43;2.40;;;7.50;67.40;;;;;;5053532;28;20463;-47
2022/01/30 06:14:33;;;;;;;8.67;2.53;;;7.50;67.50;;;;;;5037695;28;20463;-47
2022/01/30 06:17:00;;;;;;;7.90;2.70;;;7.50;67.30;;;;;;5036749;28;20828;-47
2022/01/30 06:19:27;;;;;;;7.87;1.97;;;7.50;67.00;;;;;;5051127;28;20501;-47
2022/01/30 06:21:53;;;;;;;7.13;2.13;;;7.50;66.90;;;;;;5039961;28;20974;-47
2022/01/30 06:24:20;;;;;;;13.10;3.00;;;7.40;66.60;;;;;;5036618;28;20494;-47
2022/01/30 06:26:47;;;;;;;18.53;2.40;;;7.40;67.30;;;;;;5029098;28;20960;-47
2022/01/30 06:29:13;;;;;;;6.80;2.70;;;7.40;67.40;;;;;;5022549;28;20989;-47
2022/01/30 06:31:40;;;;;;;7.03;2.30;;;7.40;66.90;;;;;;5044276;28;20455;-47
2022/01/30 06:34:07;;;;;;;5.63;2.30;;;7.40;67.10;;;;;;5038232;28;20444;-47
2022/01/30 06:36:34;;;;;;;7.60;2.50;;;7.40;67.70;;;;;;5041876;28;20463;-47
2022/01/30 06:39:01;;;;;;;8.63;2.70;;;7.40;67.80;;;;;;5040128;28;20486;-47
2022/01/30 06:41:27;;;;;;;10.00;2.80;;;7.30;67.50;;;;;;5040912;28;20533;-47
2022/01/30 06:43:54;;;;;;;17.60;2.40;;;7.30;67.60;;;;;;5039330;28;20956;-47
2022/01/30 06:46:21;;;;;;;7.93;3.10;;;7.30;67.60;;;;;;5035897;28;20450;-47
2022/01/30 06:48:50;;;;;;;8.17;2.57;;;7.30;67.70;;;;;;5038689;28;20460;-47
2022/01/30 06:51:16;;;;;;;13.30;2.80;;;7.30;67.30;;;;;;5041774;28;20952;-47
2022/01/30 06:53:45;;;;;;;8.70;2.50;;;7.30;67.80;;;;;;5043560;28;20448;-47
2022/01/30 06:56:12;;;;;;;11.53;2.53;;;7.30;67.20;;;;;;5039012;28;20456;-47
2022/01/30 06:58:39;;;;;;;6.47;2.10;;;7.20;67.00;;;;;;5039803;28;20459;-47
2022/01/30 07:01:05;;;;;;;8.63;2.60;;;7.30;67.00;;;;;;5029937;28;20464;-47
2022/01/30 07:03:32;;;;;;;5.57;1.63;;;7.30;67.30;;;;;;5024659;28;20462;-47
2022/01/30 07:05:59;;;;;;;11.30;3.33;;;7.20;67.80;;;;;;5027906;28;20477;-47
2022/01/30 07:08:26;;;;;;;7.27;2.13;;;7.30;67.80;;;;;;5036331;28;20549;-47
2022/01/30 07:10:52;;;;;;;6.47;2.50;;;7.30;68.00;;;;;;5040990;28;20497;-46
2022/01/30 07:13:19;;;;;;;13.77;3.70;;;7.20;67.70;;;;;;5035466;28;20995;-47
2022/01/30 07:15:46;;;;;;;5.10;2.10;;;7.20;67.50;;;;;;5052718;28;20462;-47
2022/01/30 07:18:13;;;;;;;10.50;2.50;;;7.20;68.30;;;;;;5039381;28;20472;-47
2022/01/30 07:20:40;;;;;;;6.00;1.83;;;7.20;69.30;;;;;;5042407;28;20487;-47
2022/01/30 07:23:07;;;;;;;10.13;2.73;;;7.20;69.50;;;;;;5026862;28;20478;-46
2022/01/30 07:25:34;;;;;;;7.20;2.00;;;7.20;68.10;;;;;;5027023;28;20458;-47
2022/01/30 07:28:01;;;;;;;7.80;2.10;;;7.20;67.00;;;;;;5037378;28;20461;-47
2022/01/30 07:30:27;;;;;;;6.37;2.30;;;7.20;67.00;;;;;;5028882;28;20979;-47
2022/01/30 07:32:55;;;;;;;5.73;2.40;;;7.20;68.30;;;;;;5058748;28;20443;-47
2022/01/30 07:35:22;;;;;;;11.00;2.50;;;7.20;69.20;;;;;;5040844;28;20462;-47
2022/01/30 07:37:51;;;;;;;6.77;2.03;;;7.20;69.60;;;;;;5053359;28;20487;-47
2022/01/30 07:40:18;;;;;;;7.00;2.27;;;7.20;69.70;;;;;;5042586;28;20491;-47
2022/01/30 07:42:45;;;;;;;12.33;3.20;;;7.20;69.70;;;;;;5038318;28;20462;-47
2022/01/30 07:45:13;;;;;;;10.17;2.80;;;7.20;69.70;;;;;;5031854;28;20482;-48
2022/01/30 07:47:39;;;;;;;5.20;2.10;;;7.20;69.00;;;;;;5039980;28;20888;-49
2022/01/30 07:50:07;;;;;;;6.97;4.00;;;7.20;66.80;;;;;;5051684;28;20887;-49
2022/01/30 07:52:34;;;;;;;11.13;2.50;;;7.20;67.20;;;;;;5045117;28;20554;-48
2022/01/30 07:55:01;;;;;;;8.03;2.13;;;7.20;67.00;;;;;;5039257;28;20465;-48
2022/01/30 07:57:28;;;;;;;5.87;1.47;;;7.20;66.20;;;;;;5029806;28;20840;-47
2022/01/30 07:59:54;;;;;;;3.70;1.73;;;7.20;66.00;;;;;;5037123;28;20492;-47
2022/01/30 08:02:21;;;;;;;7.70;2.00;;;7.30;65.90;;;;;;5057053;28;20952;-47
2022/01/30 08:04:52;;;;;;;2.70;1.40;;;7.30;66.50;;;;;;5041942;28;20473;-47
2022/01/30 08:07:20;;;;;;;6.10;2.53;;;7.30;65.70;;;;;;5050812;28;20628;-47
2022/01/30 08:09:47;;;;;;;8.60;1.90;;;7.30;65.80;;;;;;5054581;28;20948;-47
2022/01/30 08:12:14;;;;;;;11.43;2.90;;;7.40;66.20;;;;;;5037913;28;20471;-47
2022/01/30 08:14:40;;;;;;;6.90;2.73;;;7.40;66.20;;;;;;5037911;28;20478;-47
2022/01/30 08:17:07;;;;;;;6.23;1.80;;;7.40;66.70;;;;;;5040683;28;20467;-47
2022/01/30 08:19:37;;;;;;;6.07;2.10;;;7.40;67.20;;;;;;5038067;28;20569;-47
2022/01/30 08:22:06;;;;;;;5.87;1.80;;;7.40;67.10;;;;;;5025557;28;20491;-48
2022/01/30 08:24:33;;;;;;;11.17;1.97;;;7.50;66.50;;;;;;5034066;28;20878;-47
2022/01/30 08:27:00;;;;;;;5.93;2.00;;;7.50;66.70;;;;;;5036086;28;20451;-47
2022/01/30 08:29:27;;;;;;;6.10;1.53;;;7.50;66.00;;;;;;5039988;28;20462;-47
2022/01/30 08:31:55;;;;;;;6.93;1.70;;;7.60;65.20;;;;;;5029833;28;20477;-47
2022/01/30 08:34:22;;;;;;;8.93;1.97;;;7.60;65.80;;;;;;5034244;28;20471;-47
2022/01/30 08:36:49;;;;;;;9.90;2.90;;;7.60;65.80;;;;;;5038113;28;20511;-47
2022/01/30 08:39:16;;;;;;;8.83;3.03;;;7.60;66.20;;;;;;5040347;28;20704;-47
2022/01/30 08:41:43;;;;;;;11.60;1.90;;;7.60;64.80;;;;;;5039890;28;20457;-47
2022/01/30 08:44:10;;;;;;;2.70;1.40;;;7.60;64.60;;;;;;5038073;28;20450;-47
2022/01/30 08:46:37;;;;;;;5.90;1.70;;;7.60;65.20;;;;;;5026746;28;20860;-47
2022/01/30 08:49:03;;;;;;;4.03;1.93;;;7.60;66.20;;;;;;5039822;28;20454;-48
2022/01/30 08:51:31;;;;;;;3.63;2.10;;;7.60;66.90;;;;;;5020276;28;20868;-47
2022/01/30 08:53:58;;;;;;;6.13;2.00;;;7.70;66.30;;;;;;5038517;28;20494;-47
2022/01/30 08:56:24;;;;;;;8.10;2.17;;;7.70;65.40;;;;;;5040706;28;20466;-48
2022/01/30 08:58:51;;;;;;;6.40;2.10;;;7.70;65.40;;;;;;5049061;28;20450;-48
2022/01/30 09:01:18;;;;;;;10.03;2.00;;;7.70;65.90;;;;;;5050892;28;20487;-47
2022/01/30 09:03:45;;;;;;;5.47;2.83;;;7.70;66.40;;;;;;5034694;28;20742;-47
2022/01/30 09:06:14;;;;;;;4.43;1.60;;;7.70;66.30;;;;;;5042342;28;20470;-48
2022/01/30 09:08:42;;;;;;;8.07;2.43;;;7.80;66.20;;;;;;5039662;28;20557;-47
2022/01/30 09:11:08;;;;;;;4.50;2.10;;;7.80;65.20;;;;;;5042375;28;20473;-47
2022/01/30 09:13:35;;;;;;;6.83;1.83;;;7.80;65.60;;;;;;5042148;28;20465;-47
2022/01/30 09:16:03;;;;;;;7.20;2.60;;;7.80;65.80;;;;;;5043784;28;20468;-50
2022/01/30 09:18:30;;;;;;;5.30;1.63;;;7.80;65.00;;;;;;5045345;28;20462;-50
2022/01/30 09:20:57;;;;;;;4.70;2.20;;;7.80;65.10;;;;;;5029114;28;21028;-50
2022/01/30 09:23:24;;;;;;;5.97;1.80;;;7.80;64.90;;;;;;5053772;28;20908;-50
2022/01/30 09:25:51;;;;;;;10.37;2.90;;;7.80;64.60;;;;;;5036510;28;20466;-51
2022/01/30 09:28:18;;;;;;;3.47;2.00;;;7.70;64.10;;;;;;5039325;28;20464;-50
2022/01/30 09:30:48;;;;;;;8.43;1.90;;;7.70;63.20;;;;;;5043058;28;21030;-50
2022/01/30 09:33:15;;;;;;;4.93;1.87;;;7.60;63.50;;;;;;5040693;28;20494;-50
2022/01/30 09:35:42;;;;;;;5.23;1.93;;;7.60;63.30;;;;;;5036662;28;20454;-50
2022/01/30 09:38:09;;;;;;;15.80;2.90;;;7.60;63.20;;;;;;5044912;28;20462;-50
2022/01/30 09:40:36;;;;;;;13.07;1.80;;;7.70;63.80;;;;;;5040091;28;20487;-50
2022/01/30 09:43:04;;;;;;;4.03;1.50;;;7.70;63.90;;;;;;5049306;28;20443;-48
2022/01/30 09:45:31;;;;;;;7.03;1.97;;;7.70;64.10;;;;;;5039723;28;20454;-48
2022/01/30 09:47:58;;;;;;;6.87;1.60;;;7.80;64.00;;;;;;5044522;28;20883;-49
2022/01/30 09:50:26;;;;;;;8.00;3.23;;;7.80;63.40;;;;;;5044541;28;21002;-48
2022/01/30 09:52:53;;;;;;;5.93;1.77;;;7.80;62.90;;;;;;5042800;28;20494;-48
2022/01/30 09:55:21;;;;;;;7.67;2.33;;;7.80;61.60;;;;;;5041795;28;20458;-49
2022/01/30 09:58:16;;;;;;;7.43;2.63;;;7.70;60.80;;;;;;5041047;28;20948;-47
2022/01/30 10:00:55;;;;;;;7.47;2.73;;;7.70;60.60;;;;;;5034972;28;20763;-48
2022/01/30 10:03:22;;;;;;;5.30;1.80;;;7.60;61.60;;;;;;5038970;28;20810;-47
2022/01/30 10:06:12;;;;;;;8.40;2.20;;;7.70;62.50;;;;;;5041493;28;20512;-47
2022/01/30 10:08:44;;;;;;;7.43;2.03;;;7.70;62.00;;;;;;5041628;28;20827;-47
2022/01/30 10:11:28;;;;;;;6.03;2.70;;;7.70;62.60;;;;;;5041605;28;20466;-48
2022/01/30 10:14:16;;;;;;;4.63;1.33;;;7.70;62.80;;;;;;5043441;28;20467;-48
2022/01/30 10:17:07;;;;;;;4.53;1.77;;;7.70;62.10;;;;;;5039878;28;20450;-46
2022/01/30 10:19:34;;;;;;;5.23;2.17;;;7.60;62.80;;;;;;5040909;28;20467;-46
2022/01/30 10:22:07;;;;;;;6.13;2.07;;;7.60;62.60;;;;;;5039073;28;20462;-47
2022/01/30 10:24:38;;;;;;;6.13;1.80;;;7.60;62.20;;;;;;5022202;28;20467;-47
2022/01/30 10:27:20;;;;;;;10.17;2.10;;;7.70;62.60;;;;;;5029035;28;20897;-48
2022/01/30 10:30:01;;;;;;;7.77;1.80;;;7.70;62.50;;;;;;5039635;28;20960;-47
2022/01/30 10:32:28;;;;;;;4.67;2.70;;;7.80;61.30;;;;;;5055566;28;20471;-47
2022/01/30 10:34:59;;;;;;;13.03;2.70;;;7.80;62.40;;;;;;5040323;28;20466;-47
2022/01/30 10:37:32;;;;;;;6.60;1.87;;;7.80;62.30;;;;;;5040394;28;20832;-47
2022/01/30 10:40:15;;;;;;;13.50;2.73;;;7.90;62.30;;;;;;5045326;28;20482;-50
2022/01/30 10:42:57;;;;;;;7.83;2.47;;;7.90;62.00;;;;;;5038392;28;20451;-50
2022/01/30 10:45:30;;;;;;;10.10;2.50;;;7.90;60.80;;;;;;5042064;28;20462;-48
2022/01/30 10:48:13;;;;;;;16.70;3.70;;;7.90;60.80;;;;;;5038717;28;20449;-48
2022/01/30 10:50:44;;;;;;;6.03;2.07;;;7.90;60.80;;;;;;5039770;28;20451;-47
2022/01/30 10:53:25;;;;;;;6.10;2.43;;;7.90;61.50;;;;;;5040270;28;20466;-47
2022/01/30 10:55:54;;;;;;;8.50;2.10;;;7.90;62.20;;;;;;5020153;28;20689;-47
2022/01/30 10:58:23;;;;;;;5.87;1.90;;;8.00;61.30;;;;;;5037200;28;20498;-47
2022/01/30 11:00:54;;;;;;;6.70;1.93;;;8.00;60.50;;;;;;5040087;28;20480;-47
2022/01/30 11:03:38;;;;;;;10.33;3.80;;;8.00;60.30;;;;;;5040357;28;20466;-47
2022/01/30 11:06:10;;;;;;;9.70;2.40;;;8.00;60.60;;;;;;5044182;28;20451;-47
2022/01/30 11:08:44;;;;;;;12.80;2.20;;;8.00;61.50;;;;;;5038129;28;20801;-47
2022/01/30 11:11:35;;;;;;;2.70;1.33;;;8.00;60.40;;;;;;5032149;28;20844;-47
2022/01/30 11:19:17;;;;;;;4.63;1.80;;;8.00;59.50;;;;;;5039458;28;20984;-47
2022/01/30 11:21:51;;;;;;;8.87;2.60;;;8.00;60.20;;;;;;5029507;28;20478;-48
2022/01/30 11:24:19;;;;;;;7.50;2.27;;;8.00;60.70;;;;;;5041739;28;20829;-48
2022/01/30 11:26:51;;;;;;;6.80;2.00;;;8.00;60.90;;;;;;5039233;28;20970;-47
2022/01/30 11:29:22;;;;;;;7.90;2.93;;;8.10;61.00;;;;;;5040779;28;20867;-47
2022/01/30 11:31:53;;;;;;;9.43;2.77;;;8.10;60.40;;;;;;5039244;28;20907;-47
2022/01/30 11:34:21;;;;;;;6.23;1.43;;;8.20;60.40;;;;;;5038822;28;20462;-47
2022/01/30 11:36:48;;;;;;;9.73;2.40;;;8.20;60.80;;;;;;5033095;28;20451;-47
2022/01/30 11:39:18;;;;;;;12.93;3.47;;;8.20;61.20;;;;;;5040890;28;20465;-48
2022/01/30 11:42:11;;;;;;;13.43;3.03;;;8.20;60.90;;;;;;5038821;28;20513;-48
2022/01/30 11:44:44;;;;;;;7.20;2.43;;;8.20;59.30;;;;;;5040090;28;20501;-48
2022/01/30 11:47:10;;;;;;;7.60;2.33;;;8.30;58.60;;;;;;5036831;28;20483;-48
2022/01/30 11:49:41;;;;;;;10.13;3.03;;;8.30;58.40;;;;;;5039074;28;20463;-48
2022/01/30 11:52:13;;;;;;;8.47;2.57;;;8.30;59.00;;;;;;5053414;28;20890;-48
2022/01/30 11:54:48;;;;;;;5.00;2.70;;;8.30;59.00;;;;;;5024351;28;20866;-48
2022/01/30 11:57:21;;;;;;;10.90;3.30;;;8.30;59.50;;;;;;5036539;28;21033;-48
2022/01/30 11:59:50;;;;;;;12.87;3.23;;;8.40;59.10;;;;;;5038893;28;20571;-48
2022/01/30 12:02:29;;;;;;;12.97;3.17;;;8.50;59.20;;;;;;5033474;28;20452;-48
2022/01/30 12:04:59;;;;;;;12.70;2.80;;;8.50;57.80;;;;;;5038676;28;20462;-47
2022/01/30 12:07:42;;;;;;;12.13;3.07;;;8.50;57.30;;;;;;5053774;28;21007;-47
2022/01/30 12:10:27;;;;;;;8.87;3.20;;;8.50;56.90;;;;;;5036758;28;20462;-47
2022/01/30 12:13:03;;;;;;;8.40;3.40;;;8.50;57.10;;;;;;5033808;28;20498;-47
2022/01/30 12:15:45;;;;;;;6.63;2.13;;;8.50;57.30;;;;;;5036275;28;20516;-47
2022/01/30 12:18:17;;;;;;;8.53;2.40;;;8.40;57.00;;;;;;5037147;28;21941;-47
2022/01/30 12:21:11;;;;;;;10.47;3.20;;;8.40;57.60;;;;;;5039612;28;21035;-47
2022/01/30 12:23:40;;;;;;;13.40;2.93;;;8.50;57.90;;;;;;5037081;28;20503;-47
2022/01/30 12:26:14;;;;;;;10.50;3.00;;;8.50;58.00;;;;;;5037297;28;20470;-47
2022/01/30 12:28:46;;;;;;;14.53;3.07;;;8.60;58.70;;;;;;5052254;28;20465;-50
2022/01/30 12:31:32;;;;;;;4.90;1.93;;;8.70;57.00;;;;;;5038059;28;20463;-50
2022/01/30 12:34:01;;;;;;;7.43;2.00;;;8.80;56.50;;;;;;5038721;28;20560;-49
2022/01/30 12:36:31;;;;;;;6.83;2.17;;;8.90;55.90;;;;;;5040540;28;20957;-50
2022/01/30 12:39:21;;;;;;;10.83;2.77;;;9.00;55.60;;;;;;5044132;28;20470;-50
2022/01/30 12:41:50;;;;;;;10.73;2.67;;;9.10;55.70;;;;;;5041701;28;20560;-47
2022/01/30 12:44:20;;;;;;;9.47;3.57;;;9.10;55.80;;;;;;5029073;28;20463;-47
2022/01/30 12:46:49;;;;;;;12.73;3.70;;;9.10;56.20;;;;;;5042053;28;20827;-47
2022/01/30 12:49:19;;;;;;;10.70;4.00;;;9.20;55.90;;;;;;5036605;28;20472;-48
2022/01/30 12:51:53;;;;;;;9.33;2.80;;;9.20;55.50;;;;;;5055314;28;20466;-47
2022/01/30 12:54:25;;;;;;;10.83;2.73;;;9.30;55.40;;;;;;5020369;28;20497;-48
2022/01/30 12:56:54;;;;;;;12.40;3.30;;;9.30;55.20;;;;;;5057562;28;20470;-48
2022/01/30 12:59:25;;;;;;;14.77;3.33;;;9.30;55.00;;;;;;5040968;28;20474;-47
2022/01/30 13:02:06;;;;;;;6.33;2.40;;;9.30;54.90;;;;;;5044270;28;20494;-47
2022/01/30 13:04:36;;;;;;;7.73;2.87;;;9.20;54.50;;;;;;5021911;28;20917;-47
2022/01/30 13:07:03;;;;;;;8.70;2.70;;;9.20;54.70;;;;;;5043019;28;20462;-46
2022/01/30 13:09:31;;;;;;;12.67;2.40;;;9.20;53.70;;;;;;5033149;28;20466;-47
2022/01/30 13:12:12;;;;;;;10.67;3.40;;;9.20;54.80;;;;;;5041886;28;20458;-46
2022/01/30 13:14:41;;;;;;;11.77;3.30;;;9.20;55.30;;;;;;5026206;28;20471;-47
2022/01/30 13:17:10;;;;;;;7.67;2.50;;;9.30;55.20;;;;;;5037148;28;20926;-47
2022/01/30 13:19:42;;;;;;;14.47;2.53;;;9.30;54.30;;;;;;5021651;28;20476;-47
2022/01/30 13:22:11;;;;;;;9.73;3.07;;;9.40;53.40;;;;;;5055781;28;20483;-47
2022/01/30 13:24:38;;;;;;;7.60;2.77;;;9.40;54.00;;;;;;5044333;28;20474;-47
2022/01/30 13:27:09;;;;;;;9.20;3.73;;;9.30;54.60;;;;;;5023796;28;20708;-47
2022/01/30 13:29:37;;;;;;;8.27;2.97;;;9.30;54.50;;;;;;5042388;28;20458;-47
2022/01/30 13:32:09;;;;;;;9.37;2.97;;;9.30;53.90;;;;;;5047159;28;20446;-47
2022/01/30 13:34:37;;;;;;;4.47;2.27;;;9.20;54.70;;;;;;5044652;28;20538;-47
2022/01/30 13:37:11;;;;;;;6.37;2.87;;;9.20;54.70;;;;;;5055528;28;20458;-54
2022/01/30 13:40:03;;;;;;;7.93;2.27;;;9.20;54.10;;;;;;5030688;28;20462;-47
2022/01/30 13:48:02;;;;;;;11.10;2.90;;;9.10;53.00;;;;;;5044001;28;20452;-46
2022/01/30 13:50:32;;;;;;;11.80;3.07;;;9.00;53.50;;;;;;5033410;28;20468;-47
2022/01/30 13:53:05;;;;;;;10.07;2.67;;;9.00;53.70;;;;;;5031903;28;20462;-47
2022/01/30 13:55:34;;;;;;;8.83;3.23;;;8.90;53.60;;;;;;5036234;28;20463;-47
2022/01/30 13:58:03;;;;;;;7.40;2.67;;;8.90;53.40;;;;;;5020630;28;20467;-49
2022/01/30 14:00:36;;;;;;;5.33;2.10;;;8.90;54.50;;;;;;5036523;28;21086;-48
2022/01/30 14:03:30;;;;;;;6.83;2.30;;;8.90;54.40;;;;;;5041150;28;20993;-48
2022/01/30 14:05:57;;;;;;;11.80;2.47;;;8.80;53.50;;;;;;5038860;28;20466;-48
2022/01/30 14:08:25;;;;;;;8.60;3.10;;;8.80;54.60;;;;;;5026000;28;20455;-48
2022/01/30 14:11:12;;;;;;;10.83;2.77;;;8.80;54.20;;;;;;5044774;28;20454;-47
2022/01/30 14:13:42;;;;;;;16.17;3.60;;;8.70;54.40;;;;;;5043808;28;20543;-48
2022/01/30 14:16:15;;;;;;;5.57;2.97;;;8.60;55.10;;;;;;5020785;28;20459;-46
2022/01/30 14:18:53;;;;;;;7.87;2.37;;;8.60;55.40;;;;;;5030972;28;20529;-46